Terminal Aerodrome Forecast
Issued by NWS

Home | Current Version | Previous Version | Text Only | Print | Product List | Glossary On
Versions: 1 2 3 4 5 6 7 8 9 10 11 12 13 14 15 16 17 18 19 20 21 22 23 24
707
FTUS45 KREV 191122
TAFTRK
TAF
KTRK 191122Z 1912/2012 00000KT P6SM SKC
     FM191600 20010G18KT P6SM SCT250 WS020/24045KT
     FM192000 22018G30KT P6SM SCT080 BKN150
     FM200300 22010G18KT P6SM -SHRA BKN050 OVC100
     FM200700 24010G18KT P6SM -RA BKN030 OVC050=

USA.gov is the U.S. government's official web portal to all federal, state and local government web resources and services.